sensor_id;sensor_type;location;lat;lon;timestamp;temperature;humidity
66608;DHT22;53462;39.616;8.824;2023-01-24T00:01:19;5.60;99.90
66608;DHT22;53462;39.616;8.824;2023-01-24T00:03:46;5.60;99.90
66608;DHT22;53462;39.616;8.824;2023-01-24T00:06:12;5.60;99.90
66608;DHT22;53462;39.616;8.824;2023-01-24T00:08:38;5.60;99.90
66608;DHT22;53462;39.616;8.824;2023-01-24T00:11:08;5.60;99.90
66608;DHT22;53462;39.616;8.824;2023-01-24T00:13:35;5.60;99.90
66608;DHT22;53462;39.616;8.824;2023-01-24T00:18:28;5.60;99.90
66608;DHT22;53462;39.616;8.824;2023-01-24T00:21:33;5.60;99.90
66608;DHT22;53462;39.616;8.824;2023-01-24T00:23:53;5.60;99.90
66608;DHT22;53462;39.616;8.824;2023-01-24T00:26:22;5.60;99.90
66608;DHT22;53462;39.616;8.824;2023-01-24T00:28:48;5.60;99.90
66608;DHT22;53462;39.616;8.824;2023-01-24T00:31:15;5.60;99.90
66608;DHT22;53462;39.616;8.824;2023-01-24T00:33:41;5.60;99.90
66608;DHT22;53462;39.616;8.824;2023-01-24T00:36:08;5.60;99.90
66608;DHT22;53462;39.616;8.824;2023-01-24T00:38:34;5.60;99.90
66608;DHT22;53462;39.616;8.824;2023-01-24T00:41:00;5.60;99.90
66608;DHT22;53462;39.616;8.824;2023-01-24T00:43:27;5.60;99.90
66608;DHT22;53462;39.616;8.824;2023-01-24T00:45:54;5.60;99.90
66608;DHT22;53462;39.616;8.824;2023-01-24T00:48:21;5.60;99.90
66608;DHT22;53462;39.616;8.824;2023-01-24T00:50:47;5.50;99.90
66608;DHT22;53462;39.616;8.824;2023-01-24T00:53:12;5.60;99.90
66608;DHT22;53462;39.616;8.824;2023-01-24T00:55:45;5.50;99.90
66608;DHT22;53462;39.616;8.824;2023-01-24T00:58:12;5.50;99.90
66608;DHT22;53462;39.616;8.824;2023-01-24T01:00:39;5.60;99.90
66608;DHT22;53462;39.616;8.824;2023-01-24T01:03:09;5.60;99.90
66608;DHT22;53462;39.616;8.824;2023-01-24T01:05:35;5.70;99.90
66608;DHT22;53462;39.616;8.824;2023-01-24T01:08:02;5.70;99.90
66608;DHT22;53462;39.616;8.824;2023-01-24T01:10:28;5.70;99.90
66608;DHT22;53462;39.616;8.824;2023-01-24T01:12:54;5.70;99.90
66608;DHT22;53462;39.616;8.824;2023-01-24T01:15:20;5.70;99.90
66608;DHT22;53462;39.616;8.824;2023-01-24T01:17:46;5.70;99.90
66608;DHT22;53462;39.616;8.824;2023-01-24T01:20:12;5.60;99.90
66608;DHT22;53462;39.616;8.824;2023-01-24T01:22:38;5.50;99.90
66608;DHT22;53462;39.616;8.824;2023-01-24T01:25:04;5.40;99.90
66608;DHT22;53462;39.616;8.824;2023-01-24T01:27:30;5.50;99.90
66608;DHT22;53462;39.616;8.824;2023-01-24T01:29:56;5.50;99.90
66608;DHT22;53462;39.616;8.824;2023-01-24T01:32:21;5.30;99.90
66608;DHT22;53462;39.616;8.824;2023-01-24T01:34:47;5.20;99.90
66608;DHT22;53462;39.616;8.824;2023-01-24T01:37:13;5.10;99.90
66608;DHT22;53462;39.616;8.824;2023-01-24T01:39:39;5.10;99.90
66608;DHT22;53462;39.616;8.824;2023-01-24T01:42:05;5.20;99.90
66608;DHT22;53462;39.616;8.824;2023-01-24T01:44:33;5.30;99.90
66608;DHT22;53462;39.616;8.824;2023-01-24T01:47:26;5.40;99.90
66608;DHT22;53462;39.616;8.824;2023-01-24T01:50:07;5.40;99.90
66608;DHT22;53462;39.616;8.824;2023-01-24T01:52:41;5.50;99.90
66608;DHT22;53462;39.616;8.824;2023-01-24T01:55:16;5.50;99.90
66608;DHT22;53462;39.616;8.824;2023-01-24T01:57:45;5.50;99.90
66608;DHT22;53462;39.616;8.824;2023-01-24T02:00:17;5.50;99.90
66608;DHT22;53462;39.616;8.824;2023-01-24T02:02:48;5.50;99.90
66608;DHT22;53462;39.616;8.824;2023-01-24T02:05:20;5.50;99.90
66608;DHT22;53462;39.616;8.824;2023-01-24T02:07:51;5.60;99.90
66608;DHT22;53462;39.616;8.824;2023-01-24T02:10:22;5.60;99.90
66608;DHT22;53462;39.616;8.824;2023-01-24T02:12:51;5.60;99.90
66608;DHT22;53462;39.616;8.824;2023-01-24T02:15:22;5.60;99.90
66608;DHT22;53462;39.616;8.824;2023-01-24T02:18:09;5.60;99.90
66608;DHT22;53462;39.616;8.824;2023-01-24T02:20:41;5.60;99.90
66608;DHT22;53462;39.616;8.824;2023-01-24T02:28:33;5.60;99.90
66608;DHT22;53462;39.616;8.824;2023-01-24T02:31:00;5.60;99.90
66608;DHT22;53462;39.616;8.824;2023-01-24T02:33:27;5.60;99.90
66608;DHT22;53462;39.616;8.824;2023-01-24T02:38:39;5.70;99.90
66608;DHT22;53462;39.616;8.824;2023-01-24T02:41:07;5.60;99.90
66608;DHT22;53462;39.616;8.824;2023-01-24T02:43:44;5.70;99.90
66608;DHT22;53462;39.616;8.824;2023-01-24T02:46:11;5.70;99.90
66608;DHT22;53462;39.616;8.824;2023-01-24T02:48:37;5.80;99.90
66608;DHT22;53462;39.616;8.824;2023-01-24T02:51:03;5.80;99.90
66608;DHT22;53462;39.616;8.824;2023-01-24T02:53:48;5.80;99.90
66608;DHT22;53462;39.616;8.824;2023-01-24T02:56:14;5.80;99.90
66608;DHT22;53462;39.616;8.824;2023-01-24T02:58:59;5.80;99.90
66608;DHT22;53462;39.616;8.824;2023-01-24T03:01:27;5.80;99.90
66608;DHT22;53462;39.616;8.824;2023-01-24T03:03:55;5.90;99.90
66608;DHT22;53462;39.616;8.824;2023-01-24T03:06:21;5.80;99.90
66608;DHT22;53462;39.616;8.824;2023-01-24T03:08:47;5.80;99.90
66608;DHT22;53462;39.616;8.824;2023-01-24T03:11:22;5.80;99.90
66608;DHT22;53462;39.616;8.824;2023-01-24T03:13:48;5.90;99.90
66608;DHT22;53462;39.616;8.824;2023-01-24T03:16:33;5.90;99.90
66608;DHT22;53462;39.616;8.824;2023-01-24T03:19:17;5.90;99.90
66608;DHT22;53462;39.616;8.824;2023-01-24T03:22:02;5.90;99.90
66608;DHT22;53462;39.616;8.824;2023-01-24T03:24:47;6.00;99.90
66608;DHT22;53462;39.616;8.824;2023-01-24T03:27:31;6.00;99.90
66608;DHT22;53462;39.616;8.824;2023-01-24T03:30:21;6.00;99.90
66608;DHT22;53462;39.616;8.824;2023-01-24T03:33:06;6.00;99.90
66608;DHT22;53462;39.616;8.824;2023-01-24T03:35:51;5.30;99.90
66608;DHT22;53462;39.616;8.824;2023-01-24T03:38:23;5.00;99.90
66608;DHT22;53462;39.616;8.824;2023-01-24T03:41:08;5.00;99.90
66608;DHT22;53462;39.616;8.824;2023-01-24T03:43:36;4.90;99.90
66608;DHT22;53462;39.616;8.824;2023-01-24T03:46:03;4.70;99.90
66608;DHT22;53462;39.616;8.824;2023-01-24T03:48:52;4.60;99.90
66608;DHT22;53462;39.616;8.824;2023-01-24T03:51:25;4.70;99.90
66608;DHT22;53462;39.616;8.824;2023-01-24T03:54:09;4.80;99.90
66608;DHT22;53462;39.616;8.824;2023-01-24T03:56:45;4.80;99.90
66608;DHT22;53462;39.616;8.824;2023-01-24T03:59:11;4.80;99.90
66608;DHT22;53462;39.616;8.824;2023-01-24T04:01:38;4.90;99.90
66608;DHT22;53462;39.616;8.824;2023-01-24T04:04:09;5.00;99.90
66608;DHT22;53462;39.616;8.824;2023-01-24T04:06:37;4.90;99.90
66608;DHT22;53462;39.616;8.824;2023-01-24T04:09:05;4.90;99.90
66608;DHT22;53462;39.616;8.824;2023-01-24T04:11:33;5.00;99.90
66608;DHT22;53462;39.616;8.824;2023-01-24T04:14:05;5.00;99.90
66608;DHT22;53462;39.616;8.824;2023-01-24T04:16:33;4.90;99.90
66608;DHT22;53462;39.616;8.824;2023-01-24T04:19:21;5.00;99.90
66608;DHT22;53462;39.616;8.824;2023-01-24T04:21:47;5.00;99.90
66608;DHT22;53462;39.616;8.824;2023-01-24T04:24:13;5.00;99.90
66608;DHT22;53462;39.616;8.824;2023-01-24T04:26:42;5.00;99.90
66608;DHT22;53462;39.616;8.824;2023-01-24T04:29:14;5.10;99.90
66608;DHT22;53462;39.616;8.824;2023-01-24T04:31:40;5.10;99.90
66608;DHT22;53462;39.616;8.824;2023-01-24T04:34:25;5.10;99.90
66608;DHT22;53462;39.616;8.824;2023-01-24T04:36:51;5.00;99.90
66608;DHT22;53462;39.616;8.824;2023-01-24T04:39:17;5.00;99.90
66608;DHT22;53462;39.616;8.824;2023-01-24T04:42:03;5.00;99.90
66608;DHT22;53462;39.616;8.824;2023-01-24T04:44:31;5.00;99.90
66608;DHT22;53462;39.616;8.824;2023-01-24T04:46:59;5.00;99.90
66608;DHT22;53462;39.616;8.824;2023-01-24T04:49:26;5.00;99.90
66608;DHT22;53462;39.616;8.824;2023-01-24T04:51:52;5.00;99.90
66608;DHT22;53462;39.616;8.824;2023-01-24T04:54:22;5.10;99.90
66608;DHT22;53462;39.616;8.824;2023-01-24T04:56:49;5.20;99.90
66608;DHT22;53462;39.616;8.824;2023-01-24T04:59:16;5.30;99.90
66608;DHT22;53462;39.616;8.824;2023-01-24T05:01:43;5.30;99.90
66608;DHT22;53462;39.616;8.824;2023-01-24T05:04:29;5.30;99.90
66608;DHT22;53462;39.616;8.824;2023-01-24T05:06:56;5.10;99.90
66608;DHT22;53462;39.616;8.824;2023-01-24T05:09:22;5.00;99.90
66608;DHT22;53462;39.616;8.824;2023-01-24T05:11:54;5.10;99.90
66608;DHT22;53462;39.616;8.824;2023-01-24T05:14:20;5.10;99.90
66608;DHT22;53462;39.616;8.824;2023-01-24T05:16:46;5.10;99.90
66608;DHT22;53462;39.616;8.824;2023-01-24T05:19:12;5.00;99.90
66608;DHT22;53462;39.616;8.824;2023-01-24T05:21:38;5.10;99.90
66608;DHT22;53462;39.616;8.824;2023-01-24T05:24:04;5.10;99.90
66608;DHT22;53462;39.616;8.824;2023-01-24T05:26:30;5.10;99.90
66608;DHT22;53462;39.616;8.824;2023-01-24T05:28:58;5.10;99.90
66608;DHT22;53462;39.616;8.824;2023-01-24T05:31:24;5.10;99.90
66608;DHT22;53462;39.616;8.824;2023-01-24T05:33:50;5.10;99.90
66608;DHT22;53462;39.616;8.824;2023-01-24T05:36:18;5.10;99.90
66608;DHT22;53462;39.616;8.824;2023-01-24T05:38:46;5.10;99.90
66608;DHT22;53462;39.616;8.824;2023-01-24T05:41:15;5.10;99.90
66608;DHT22;53462;39.616;8.824;2023-01-24T05:43:43;5.10;99.90
66608;DHT22;53462;39.616;8.824;2023-01-24T05:46:20;5.10;99.90
66608;DHT22;53462;39.616;8.824;2023-01-24T05:48:58;5.20;99.90
66608;DHT22;53462;39.616;8.824;2023-01-24T05:51:24;5.20;99.90
66608;DHT22;53462;39.616;8.824;2023-01-24T05:53:51;5.20;99.90
66608;DHT22;53462;39.616;8.824;2023-01-24T05:56:37;5.20;99.90
66608;DHT22;53462;39.616;8.824;2023-01-24T05:59:03;5.20;99.90
66608;DHT22;53462;39.616;8.824;2023-01-24T06:01:30;5.20;99.90
66608;DHT22;53462;39.616;8.824;2023-01-24T06:03:56;5.20;99.90
66608;DHT22;53462;39.616;8.824;2023-01-24T06:06:23;5.10;99.90
66608;DHT22;53462;39.616;8.824;2023-01-24T06:08:50;5.20;99.90
66608;DHT22;53462;39.616;8.824;2023-01-24T06:11:20;5.10;99.90
66608;DHT22;53462;39.616;8.824;2023-01-24T06:13:47;5.10;99.90
66608;DHT22;53462;39.616;8.824;2023-01-24T06:16:16;5.00;99.90
66608;DHT22;53462;39.616;8.824;2023-01-24T06:18:43;5.00;99.90
66608;DHT22;53462;39.616;8.824;2023-01-24T06:23:58;5.10;99.90
66608;DHT22;53462;39.616;8.824;2023-01-24T06:26:32;5.10;99.90
66608;DHT22;53462;39.616;8.824;2023-01-24T06:28:58;5.10;99.90
66608;DHT22;53462;39.616;8.824;2023-01-24T06:35:00;5.00;99.90
66608;DHT22;53462;39.616;8.824;2023-01-24T06:37:46;5.00;99.90
66608;DHT22;53462;39.616;8.824;2023-01-24T06:40:14;4.90;99.90
66608;DHT22;53462;39.616;8.824;2023-01-24T06:42:40;5.00;99.90
66608;DHT22;53462;39.616;8.824;2023-01-24T06:45:07;5.00;99.90
66608;DHT22;53462;39.616;8.824;2023-01-24T06:47:33;5.00;99.90
66608;DHT22;53462;39.616;8.824;2023-01-24T06:49:59;5.00;99.90
66608;DHT22;53462;39.616;8.824;2023-01-24T06:52:25;5.00;99.90
66608;DHT22;53462;39.616;8.824;2023-01-24T06:54:51;5.00;99.90
66608;DHT22;53462;39.616;8.824;2023-01-24T06:57:17;5.10;99.90
66608;DHT22;53462;39.616;8.824;2023-01-24T06:59:42;5.10;99.90
66608;DHT22;53462;39.616;8.824;2023-01-24T07:02:11;5.10;99.90
66608;DHT22;53462;39.616;8.824;2023-01-24T07:04:37;5.10;99.90
66608;DHT22;53462;39.616;8.824;2023-01-24T07:07:04;5.20;99.90
66608;DHT22;53462;39.616;8.824;2023-01-24T07:09:32;5.20;99.90
66608;DHT22;53462;39.616;8.824;2023-01-24T07:11:58;5.20;99.90
66608;DHT22;53462;39.616;8.824;2023-01-24T07:14:24;5.30;99.90
66608;DHT22;53462;39.616;8.824;2023-01-24T07:16:51;5.30;99.90
66608;DHT22;53462;39.616;8.824;2023-01-24T07:19:19;5.40;99.90
66608;DHT22;53462;39.616;8.824;2023-01-24T07:21:51;5.30;99.90
66608;DHT22;53462;39.616;8.824;2023-01-24T07:24:27;5.30;99.90
66608;DHT22;53462;39.616;8.824;2023-01-24T07:26:55;5.40;99.90
66608;DHT22;53462;39.616;8.824;2023-01-24T07:29:22;5.50;99.90
66608;DHT22;53462;39.616;8.824;2023-01-24T07:31:49;5.70;99.90
66608;DHT22;53462;39.616;8.824;2023-01-24T07:34:16;5.90;99.90
66608;DHT22;53462;39.616;8.824;2023-01-24T07:36:43;6.00;99.90
66608;DHT22;53462;39.616;8.824;2023-01-24T07:39:09;6.00;99.90
66608;DHT22;53462;39.616;8.824;2023-01-24T07:41:36;6.00;99.90
66608;DHT22;53462;39.616;8.824;2023-01-24T07:44:02;6.00;99.90
66608;DHT22;53462;39.616;8.824;2023-01-24T07:46:34;6.00;99.90
66608;DHT22;53462;39.616;8.824;2023-01-24T07:49:01;6.00;99.90
66608;DHT22;53462;39.616;8.824;2023-01-24T07:51:28;6.10;99.90
66608;DHT22;53462;39.616;8.824;2023-01-24T07:53:54;6.10;99.90
66608;DHT22;53462;39.616;8.824;2023-01-24T07:56:19;6.00;99.90
66608;DHT22;53462;39.616;8.824;2023-01-24T07:58:45;6.00;99.90
66608;DHT22;53462;39.616;8.824;2023-01-24T08:01:18;6.00;99.90
66608;DHT22;53462;39.616;8.824;2023-01-24T08:03:45;6.10;99.90
66608;DHT22;53462;39.616;8.824;2023-01-24T08:06:11;6.10;99.90
66608;DHT22;53462;39.616;8.824;2023-01-24T08:08:36;6.10;99.90
66608;DHT22;53462;39.616;8.824;2023-01-24T08:11:02;6.10;99.90
66608;DHT22;53462;39.616;8.824;2023-01-24T08:13:28;6.20;99.90
66608;DHT22;53462;39.616;8.824;2023-01-24T08:15:54;6.20;99.90
66608;DHT22;53462;39.616;8.824;2023-01-24T08:18:20;6.40;99.90
66608;DHT22;53462;39.616;8.824;2023-01-24T08:20:46;6.40;99.90
66608;DHT22;53462;39.616;8.824;2023-01-24T08:23:12;6.40;99.90
66608;DHT22;53462;39.616;8.824;2023-01-24T08:25:38;6.40;99.90
66608;DHT22;53462;39.616;8.824;2023-01-24T08:28:04;6.40;99.90
66608;DHT22;53462;39.616;8.824;2023-01-24T08:30:30;6.40;99.90
66608;DHT22;53462;39.616;8.824;2023-01-24T08:33:03;6.40;99.90
66608;DHT22;53462;39.616;8.824;2023-01-24T08:35:30;6.60;99.90
66608;DHT22;53462;39.616;8.824;2023-01-24T08:37:57;6.70;99.90
66608;DHT22;53462;39.616;8.824;2023-01-24T08:40:23;6.70;99.90
66608;DHT22;53462;39.616;8.824;2023-01-24T08:42:49;6.80;99.90
66608;DHT22;53462;39.616;8.824;2023-01-24T08:45:15;6.90;99.90
66608;DHT22;53462;39.616;8.824;2023-01-24T08:47:41;7.00;99.90
66608;DHT22;53462;39.616;8.824;2023-01-24T08:50:08;7.10;99.90
66608;DHT22;53462;39.616;8.824;2023-01-24T08:52:34;7.60;99.90
66608;DHT22;53462;39.616;8.824;2023-01-24T08:55:00;8.80;99.90
66608;DHT22;53462;39.616;8.824;2023-01-24T08:57:26;10.80;98.70
66608;DHT22;53462;39.616;8.824;2023-01-24T08:59:52;11.60;88.60
66608;DHT22;53462;39.616;8.824;2023-01-24T09:02:20;12.90;88.70
66608;DHT22;53462;39.616;8.824;2023-01-24T09:04:46;14.90;74.20
66608;DHT22;53462;39.616;8.824;2023-01-24T09:07:12;12.20;72.80
66608;DHT22;53462;39.616;8.824;2023-01-24T09:09:38;13.50;77.90
66608;DHT22;53462;39.616;8.824;2023-01-24T09:12:04;17.50;55.10
66608;DHT22;53462;39.616;8.824;2023-01-24T09:14:30;18.90;48.90
66608;DHT22;53462;39.616;8.824;2023-01-24T09:16:56;20.90;44.10
66608;DHT22;53462;39.616;8.824;2023-01-24T09:19:22;21.00;43.50
66608;DHT22;53462;39.616;8.824;2023-01-24T09:21:49;21.50;40.80
66608;DHT22;53462;39.616;8.824;2023-01-24T09:24:18;21.90;39.00
66608;DHT22;53462;39.616;8.824;2023-01-24T09:26:44;20.00;41.80
66608;DHT22;53462;39.616;8.824;2023-01-24T09:29:11;21.40;39.60
66608;DHT22;53462;39.616;8.824;2023-01-24T09:31:37;16.20;46.30
66608;DHT22;53462;39.616;8.824;2023-01-24T09:34:03;13.50;57.40
66608;DHT22;53462;39.616;8.824;2023-01-24T09:36:30;14.20;57.30
66608;DHT22;53462;39.616;8.824;2023-01-24T09:38:56;13.60;57.70
66608;DHT22;53462;39.616;8.824;2023-01-24T09:46:54;16.70;54.40
66608;DHT22;53462;39.616;8.824;2023-01-24T09:49:33;12.60;67.40
66608;DHT22;53462;39.616;8.824;2023-01-24T09:52:01;11.50;77.10
66608;DHT22;53462;39.616;8.824;2023-01-24T09:58:36;10.30;85.30
66608;DHT22;53462;39.616;8.824;2023-01-24T10:00:45;10.00;88.60
66608;DHT22;53462;39.616;8.824;2023-01-24T10:03:19;13.30;75.90
66608;DHT22;53462;39.616;8.824;2023-01-24T10:05:54;16.60;58.20
66608;DHT22;53462;39.616;8.824;2023-01-24T10:25:56;16.20;56.10
66608;DHT22;53462;39.616;8.824;2023-01-24T10:28:27;18.10;52.60
66608;DHT22;53462;39.616;8.824;2023-01-24T10:33:48;13.20;66.60
66608;DHT22;53462;39.616;8.824;2023-01-24T10:38:52;12.00;72.80
66608;DHT22;53462;39.616;8.824;2023-01-24T10:41:21;11.40;78.30
66608;DHT22;53462;39.616;8.824;2023-01-24T10:49:47;12.10;77.10
66608;DHT22;53462;39.616;8.824;2023-01-24T10:52:18;11.70;78.90
66608;DHT22;53462;39.616;8.824;2023-01-24T10:54:48;11.20;82.50
66608;DHT22;53462;39.616;8.824;2023-01-24T10:57:24;11.00;84.70
66608;DHT22;53462;39.616;8.824;2023-01-24T10:59:53;11.00;84.80
66608;DHT22;53462;39.616;8.824;2023-01-24T11:02:24;10.80;84.00
66608;DHT22;53462;39.616;8.824;2023-01-24T11:05:02;10.70;84.70
66608;DHT22;53462;39.616;8.824;2023-01-24T11:07:33;10.80;82.60
66608;DHT22;53462;39.616;8.824;2023-01-24T11:10:22;10.30;82.40
66608;DHT22;53462;39.616;8.824;2023-01-24T11:12:57;10.30;85.90
66608;DHT22;53462;39.616;8.824;2023-01-24T11:15:27;10.40;85.80
66608;DHT22;53462;39.616;8.824;2023-01-24T11:18:19;10.30;86.00
66608;DHT22;53462;39.616;8.824;2023-01-24T11:20:42;10.10;86.20
66608;DHT22;53462;39.616;8.824;2023-01-24T11:25:56;9.80;91.10
66608;DHT22;53462;39.616;8.824;2023-01-24T11:28:35;9.50;88.70
66608;DHT22;53462;39.616;8.824;2023-01-24T11:31:14;9.60;90.00
66608;DHT22;53462;39.616;8.824;2023-01-24T11:45:28;9.30;90.60
66608;DHT22;53462;39.616;8.824;2023-01-24T12:10:34;8.80;83.40
66608;DHT22;53462;39.616;8.824;2023-01-24T12:21:11;8.50;83.00
66608;DHT22;53462;39.616;8.824;2023-01-24T12:23:54;8.40;82.90
66608;DHT22;53462;39.616;8.824;2023-01-24T12:26:39;8.40;82.00
66608;DHT22;53462;39.616;8.824;2023-01-24T12:29:17;8.40;80.40
66608;DHT22;53462;39.616;8.824;2023-01-24T12:36:54;8.20;80.20
66608;DHT22;53462;39.616;8.824;2023-01-24T12:39:30;8.20;80.60
66608;DHT22;53462;39.616;8.824;2023-01-24T12:42:16;8.20;79.60
66608;DHT22;53462;39.616;8.824;2023-01-24T12:44:47;8.10;79.00
66608;DHT22;53462;39.616;8.824;2023-01-24T12:52:31;8.20;77.90
66608;DHT22;53462;39.616;8.824;2023-01-24T12:55:08;8.20;77.70
66608;DHT22;53462;39.616;8.824;2023-01-24T13:00:32;8.30;76.70
66608;DHT22;53462;39.616;8.824;2023-01-24T13:03:26;8.20;75.70
66608;DHT22;53462;39.616;8.824;2023-01-24T13:09:21;8.30;76.20
66608;DHT22;53462;39.616;8.824;2023-01-24T13:11:49;8.50;72.80
66608;DHT22;53462;39.616;8.824;2023-01-24T13:14:36;8.60;72.60
66608;DHT22;53462;39.616;8.824;2023-01-24T13:17:15;8.70;70.40
66608;DHT22;53462;39.616;8.824;2023-01-24T13:31:29;9.20;66.80
66608;DHT22;53462;39.616;8.824;2023-01-24T13:33:59;9.10;68.30
66608;DHT22;53462;39.616;8.824;2023-01-24T13:36:35;9.10;68.70
66608;DHT22;53462;39.616;8.824;2023-01-24T13:39:04;9.10;69.00
66608;DHT22;53462;39.616;8.824;2023-01-24T13:49:40;9.30;67.30
66608;DHT22;53462;39.616;8.824;2023-01-24T13:54:58;9.30;67.20
66608;DHT22;53462;39.616;8.824;2023-01-24T13:57:36;9.20;67.30
66608;DHT22;53462;39.616;8.824;2023-01-24T14:08:01;9.20;68.70
66608;DHT22;53462;39.616;8.824;2023-01-24T14:10:45;9.20;68.60
66608;DHT22;53462;39.616;8.824;2023-01-24T14:13:43;9.30;69.40
66608;DHT22;53462;39.616;8.824;2023-01-24T14:21:55;9.40;67.30
66608;DHT22;53462;39.616;8.824;2023-01-24T14:24:35;9.40;68.00
66608;DHT22;53462;39.616;8.824;2023-01-24T14:27:18;9.40;68.30
66608;DHT22;53462;39.616;8.824;2023-01-24T14:29:47;9.40;69.10
66608;DHT22;53462;39.616;8.824;2023-01-24T14:32:25;9.40;69.60
66608;DHT22;53462;39.616;8.824;2023-01-24T14:37:44;9.60;70.80
66608;DHT22;53462;39.616;8.824;2023-01-24T14:40:17;9.50;72.00
66608;DHT22;53462;39.616;8.824;2023-01-24T14:42:43;9.40;72.70
66608;DHT22;53462;39.616;8.824;2023-01-24T14:45:22;9.30;74.10
66608;DHT22;53462;39.616;8.824;2023-01-24T14:47:50;9.20;76.20
66608;DHT22;53462;39.616;8.824;2023-01-24T14:50:29;9.10;76.40
66608;DHT22;53462;39.616;8.824;2023-01-24T14:52:57;8.90;76.50
66608;DHT22;53462;39.616;8.824;2023-01-24T14:57:53;8.50;78.40
66608;DHT22;53462;39.616;8.824;2023-01-24T15:00:21;8.60;79.70
66608;DHT22;53462;39.616;8.824;2023-01-24T15:02:54;8.70;79.70
66608;DHT22;53462;39.616;8.824;2023-01-24T15:05:27;8.60;79.50
66608;DHT22;53462;39.616;8.824;2023-01-24T15:07:54;8.60;79.50
66608;DHT22;53462;39.616;8.824;2023-01-24T15:10:25;8.50;79.90
66608;DHT22;53462;39.616;8.824;2023-01-24T15:12:54;8.50;80.20
66608;DHT22;53462;39.616;8.824;2023-01-24T15:15:21;8.60;80.50
66608;DHT22;53462;39.616;8.824;2023-01-24T15:17:48;8.60;80.50
66608;DHT22;53462;39.616;8.824;2023-01-24T15:20:20;8.50;81.10
66608;DHT22;53462;39.616;8.824;2023-01-24T15:22:52;8.60;81.60
66608;DHT22;53462;39.616;8.824;2023-01-24T15:25:19;8.60;82.30
66608;DHT22;53462;39.616;8.824;2023-01-24T15:27:45;8.60;83.00
66608;DHT22;53462;39.616;8.824;2023-01-24T15:30:22;8.50;83.30
66608;DHT22;53462;39.616;8.824;2023-01-24T15:35:28;8.50;84.10
66608;DHT22;53462;39.616;8.824;2023-01-24T15:46:41;8.40;84.00
66608;DHT22;53462;39.616;8.824;2023-01-24T15:49:58;8.40;84.10
66608;DHT22;53462;39.616;8.824;2023-01-24T15:52:24;8.40;84.00
66608;DHT22;53462;39.616;8.824;2023-01-24T15:54:58;8.30;84.60
66608;DHT22;53462;39.616;8.824;2023-01-24T15:57:34;8.30;84.80
66608;DHT22;53462;39.616;8.824;2023-01-24T16:02:36;8.30;85.50
66608;DHT22;53462;39.616;8.824;2023-01-24T16:05:14;8.30;85.70
66608;DHT22;53462;39.616;8.824;2023-01-24T16:07:41;8.20;86.20
66608;DHT22;53462;39.616;8.824;2023-01-24T16:10:11;8.20;86.40
66608;DHT22;53462;39.616;8.824;2023-01-24T16:12:38;8.20;86.90
66608;DHT22;53462;39.616;8.824;2023-01-24T16:15:04;8.10;87.50
66608;DHT22;53462;39.616;8.824;2023-01-24T16:17:30;8.10;88.20
66608;DHT22;53462;39.616;8.824;2023-01-24T16:19:56;8.10;88.60
66608;DHT22;53462;39.616;8.824;2023-01-24T16:22:22;8.10;88.90
66608;DHT22;53462;39.616;8.824;2023-01-24T16:24:48;8.00;89.60
66608;DHT22;53462;39.616;8.824;2023-01-24T16:27:15;8.00;89.90
66608;DHT22;53462;39.616;8.824;2023-01-24T16:29:41;8.00;89.60
66608;DHT22;53462;39.616;8.824;2023-01-24T16:32:20;8.00;89.40
66608;DHT22;53462;39.616;8.824;2023-01-24T16:34:47;8.10;89.00
66608;DHT22;53462;39.616;8.824;2023-01-24T16:37:13;8.10;88.40
66608;DHT22;53462;39.616;8.824;2023-01-24T16:39:38;8.10;88.50
66608;DHT22;53462;39.616;8.824;2023-01-24T16:42:14;8.10;88.50
66608;DHT22;53462;39.616;8.824;2023-01-24T16:44:41;8.00;88.50
66608;DHT22;53462;39.616;8.824;2023-01-24T16:47:09;8.00;88.90
66608;DHT22;53462;39.616;8.824;2023-01-24T16:49:36;8.00;89.30
66608;DHT22;53462;39.616;8.824;2023-01-24T16:52:02;7.90;89.70
66608;DHT22;53462;39.616;8.824;2023-01-24T16:54:28;7.90;89.80
66608;DHT22;53462;39.616;8.824;2023-01-24T16:56:54;7.90;89.70
66608;DHT22;53462;39.616;8.824;2023-01-24T16:59:20;7.90;89.50
66608;DHT22;53462;39.616;8.824;2023-01-24T17:01:46;7.80;90.50
66608;DHT22;53462;39.616;8.824;2023-01-24T17:04:11;7.80;91.00
66608;DHT22;53462;39.616;8.824;2023-01-24T17:06:37;7.80;91.10
66608;DHT22;53462;39.616;8.824;2023-01-24T17:09:03;7.80;91.40
66608;DHT22;53462;39.616;8.824;2023-01-24T17:11:31;7.70;91.90
66608;DHT22;53462;39.616;8.824;2023-01-24T17:13:58;7.50;93.40
66608;DHT22;53462;39.616;8.824;2023-01-24T17:16:24;7.40;95.50
66608;DHT22;53462;39.616;8.824;2023-01-24T17:18:50;7.40;97.40
66608;DHT22;53462;39.616;8.824;2023-01-24T17:21:16;7.30;98.40
66608;DHT22;53462;39.616;8.824;2023-01-24T17:23:43;7.30;99.90
66608;DHT22;53462;39.616;8.824;2023-01-24T17:26:16;7.30;99.90
66608;DHT22;53462;39.616;8.824;2023-01-24T17:28:44;7.30;99.90
66608;DHT22;53462;39.616;8.824;2023-01-24T17:31:13;7.20;99.90
66608;DHT22;53462;39.616;8.824;2023-01-24T17:33:39;7.20;99.90
66608;DHT22;53462;39.616;8.824;2023-01-24T17:36:06;7.20;99.90
66608;DHT22;53462;39.616;8.824;2023-01-24T17:38:33;7.20;99.90
66608;DHT22;53462;39.616;8.824;2023-01-24T17:40:59;7.20;99.90
66608;DHT22;53462;39.616;8.824;2023-01-24T17:43:25;7.20;99.90
66608;DHT22;53462;39.616;8.824;2023-01-24T17:45:53;7.10;99.90
66608;DHT22;53462;39.616;8.824;2023-01-24T17:48:20;7.10;99.90
66608;DHT22;53462;39.616;8.824;2023-01-24T17:50:46;7.10;99.90
66608;DHT22;53462;39.616;8.824;2023-01-24T17:53:14;7.00;99.90
66608;DHT22;53462;39.616;8.824;2023-01-24T17:55:40;7.00;99.90
66608;DHT22;53462;39.616;8.824;2023-01-24T17:58:06;7.00;99.90
66608;DHT22;53462;39.616;8.824;2023-01-24T18:00:32;7.00;99.90
66608;DHT22;53462;39.616;8.824;2023-01-24T18:02:57;7.00;99.90
66608;DHT22;53462;39.616;8.824;2023-01-24T18:05:24;7.00;99.90
66608;DHT22;53462;39.616;8.824;2023-01-24T18:07:50;6.90;99.90
66608;DHT22;53462;39.616;8.824;2023-01-24T18:10:16;6.90;99.90
66608;DHT22;53462;39.616;8.824;2023-01-24T18:12:45;6.80;99.90
66608;DHT22;53462;39.616;8.824;2023-01-24T18:15:11;6.90;99.90
66608;DHT22;53462;39.616;8.824;2023-01-24T18:17:37;6.70;99.90
66608;DHT22;53462;39.616;8.824;2023-01-24T18:20:04;6.70;99.90
66608;DHT22;53462;39.616;8.824;2023-01-24T18:22:30;6.70;99.90
66608;DHT22;53462;39.616;8.824;2023-01-24T18:24:56;6.60;99.90
66608;DHT22;53462;39.616;8.824;2023-01-24T18:27:25;6.50;99.90
66608;DHT22;53462;39.616;8.824;2023-01-24T18:29:51;6.50;99.90
66608;DHT22;53462;39.616;8.824;2023-01-24T18:32:18;6.50;99.90
66608;DHT22;53462;39.616;8.824;2023-01-24T18:34:44;6.30;99.90
66608;DHT22;53462;39.616;8.824;2023-01-24T18:37:10;6.20;99.90
66608;DHT22;53462;39.616;8.824;2023-01-24T18:39:36;6.20;99.90
66608;DHT22;53462;39.616;8.824;2023-01-24T18:42:02;6.10;99.90
66608;DHT22;53462;39.616;8.824;2023-01-24T18:44:32;6.10;99.90
66608;DHT22;53462;39.616;8.824;2023-01-24T18:46:57;6.10;99.90
66608;DHT22;53462;39.616;8.824;2023-01-24T18:49:23;6.00;99.90
66608;DHT22;53462;39.616;8.824;2023-01-24T18:51:49;6.00;99.90
66608;DHT22;53462;39.616;8.824;2023-01-24T18:54:16;5.90;99.90